createdAt,value
2019-03-17T00:00:07.086Z,9.19
2019-03-17T00:02:35.531Z,9.20
2019-03-17T00:05:04.787Z,9.19
2019-03-17T00:07:33.246Z,9.21
2019-03-17T00:10:01.699Z,9.22
2019-03-17T00:12:31.492Z,9.21
2019-03-17T00:15:05.068Z,9.23
2019-03-17T00:17:30.312Z,9.25
2019-03-17T00:19:58.795Z,9.26
2019-03-17T00:22:27.247Z,9.28
2019-03-17T00:25:08.157Z,9.29
2019-03-17T00:27:25.930Z,9.32
2019-03-17T00:29:54.389Z,9.33
2019-03-17T00:32:22.846Z,9.36
2019-03-17T00:34:51.333Z,9.36
2019-03-17T00:37:19.777Z,9.36
2019-03-17T00:39:48.996Z,9.37
2019-03-17T00:42:17.803Z,9.36
2019-03-17T00:44:46.232Z,9.37
2019-03-17T00:47:14.700Z,9.36
2019-03-17T00:49:43.181Z,9.35
2019-03-17T00:52:11.611Z,9.35
2019-03-17T00:54:40.048Z,9.33
2019-03-17T00:57:08.676Z,9.34
2019-03-17T00:59:37.125Z,9.33
2019-03-17T01:02:05.569Z,9.33
2019-03-17T01:04:34.057Z,9.34
2019-03-17T01:07:02.527Z,9.32
2019-03-17T01:09:30.973Z,9.33
2019-03-17T01:11:59.471Z,9.34
2019-03-17T01:14:27.903Z,9.35
2019-03-17T01:16:56.353Z,9.36
2019-03-17T01:19:24.854Z,9.37
2019-03-17T01:21:53.315Z,9.38
2019-03-17T01:24:21.767Z,9.36
2019-03-17T01:26:50.273Z,9.37
2019-03-17T01:29:18.736Z,9.36
2019-03-17T01:31:47.185Z,9.39
2019-03-17T01:34:15.679Z,9.42
2019-03-17T01:36:44.132Z,9.45
2019-03-17T01:39:12.602Z,9.48
2019-03-17T01:41:41.110Z,9.50
2019-03-17T01:44:09.683Z,9.52
2019-03-17T01:46:38.140Z,9.55
2019-03-17T01:49:06.628Z,9.56
2019-03-17T01:51:35.076Z,9.57
2019-03-17T01:54:03.526Z,9.59
2019-03-17T01:56:32.003Z,9.59
2019-03-17T01:59:00.457Z,9.59
2019-03-17T02:01:28.901Z,9.58
2019-03-17T02:03:57.394Z,9.59
2019-03-17T02:06:25.836Z,9.59
2019-03-17T02:08:54.286Z,9.27
2019-03-17T02:11:22.802Z,9.60
2019-03-17T02:13:51.257Z,9.58
2019-03-17T02:16:19.724Z,9.58
2019-03-17T02:18:48.199Z,9.57
2019-03-17T02:21:16.662Z,9.57
2019-03-17T02:23:45.096Z,9.58
2019-03-17T02:26:13.567Z,9.57
2019-03-17T02:28:42.013Z,9.57
2019-03-17T02:31:10.477Z,9.58
2019-03-17T02:33:38.955Z,9.59
2019-03-17T02:36:07.563Z,9.59
2019-03-17T02:38:36.035Z,9.60
2019-03-17T02:41:04.605Z,9.59
2019-03-17T02:43:33.055Z,9.60
2019-03-17T02:46:03.129Z,9.58
2019-03-17T02:48:31.764Z,9.61
2019-03-17T02:51:00.226Z,9.61
2019-03-17T02:53:28.694Z,9.61
2019-03-17T02:55:57.159Z,9.60
2019-03-17T02:58:25.600Z,9.60
2019-03-17T03:00:54.047Z,9.61
2019-03-17T03:03:22.565Z,9.63
2019-03-17T03:05:55.133Z,9.64
2019-03-17T03:08:21.192Z,9.65
2019-03-17T03:10:49.679Z,9.67
2019-03-17T03:13:18.189Z,9.67
2019-03-17T03:15:46.589Z,9.68
2019-03-17T03:18:15.084Z,9.68
2019-03-17T03:20:43.557Z,9.69
2019-03-17T03:23:12.010Z,9.70
2019-03-17T03:25:40.524Z,9.71
2019-03-17T03:28:08.998Z,9.71
2019-03-17T03:30:37.456Z,9.71
2019-03-17T03:33:05.949Z,9.73
2019-03-17T03:35:34.393Z,9.75
2019-03-17T03:38:02.836Z,9.76
2019-03-17T03:40:31.328Z,9.76
2019-03-17T03:42:59.772Z,9.77
2019-03-17T03:45:28.237Z,9.77
2019-03-17T03:47:56.901Z,9.78
2019-03-17T03:50:25.380Z,9.76
2019-03-17T03:52:53.848Z,9.77
2019-03-17T03:55:22.338Z,9.77
2019-03-17T03:57:50.792Z,9.76
2019-03-17T04:00:19.409Z,9.75
2019-03-17T04:02:47.917Z,9.73
2019-03-17T04:05:16.368Z,9.73
2019-03-17T04:07:44.819Z,9.71
2019-03-17T04:10:13.564Z,9.71
2019-03-17T04:12:42.019Z,9.70
2019-03-17T04:15:11.313Z,9.69
2019-03-17T04:17:39.813Z,9.70
2019-03-17T04:20:10.766Z,9.70
2019-03-17T04:22:39.211Z,9.70
2019-03-17T04:25:08.359Z,9.70
2019-03-17T04:27:36.842Z,9.70
2019-03-17T04:30:08.239Z,9.68
2019-03-17T04:32:36.763Z,9.68
2019-03-17T04:35:06.552Z,9.69
2019-03-17T04:37:35.077Z,9.70
2019-03-17T04:40:04.439Z,9.70
2019-03-17T04:42:32.889Z,9.68
2019-03-17T04:45:01.339Z,9.66
2019-03-17T04:47:29.835Z,9.61
2019-03-17T04:49:58.410Z,9.58
2019-03-17T04:52:26.864Z,9.53
2019-03-17T04:54:55.355Z,9.49
2019-03-17T04:57:23.802Z,9.47
2019-03-17T04:59:52.268Z,9.42
2019-03-17T05:02:20.760Z,9.39
2019-03-17T05:04:49.211Z,9.34
2019-03-17T05:07:17.665Z,9.29
2019-03-17T05:09:46.164Z,9.26
2019-03-17T05:12:14.623Z,9.21
2019-03-17T05:14:43.077Z,9.17
2019-03-17T05:17:11.549Z,9.13
2019-03-17T05:19:40.030Z,9.08
2019-03-17T05:22:08.493Z,9.04
2019-03-17T05:24:36.979Z,9.01
2019-03-17T05:27:05.438Z,9.00
2019-03-17T05:29:33.893Z,8.97
2019-03-17T05:32:02.393Z,8.97
2019-03-17T05:34:30.848Z,8.96
2019-03-17T05:37:06.027Z,8.99
2019-03-17T05:39:29.521Z,8.99
2019-03-17T05:41:57.984Z,9.02
2019-03-17T05:44:26.446Z,9.03
2019-03-17T05:46:54.926Z,9.03
2019-03-17T05:49:23.373Z,9.05
2019-03-17T05:51:52.158Z,9.05
2019-03-17T05:54:20.658Z,9.07
2019-03-17T05:56:49.110Z,9.10
2019-03-17T05:59:19.640Z,9.12
2019-03-17T06:01:47.785Z,9.15
2019-03-17T06:04:16.319Z,9.18
2019-03-17T06:06:44.774Z,9.23
2019-03-17T06:09:13.268Z,9.27
2019-03-17T06:11:41.727Z,9.32
2019-03-17T06:14:10.187Z,9.39
2019-03-17T06:16:38.662Z,9.43
2019-03-17T06:19:07.120Z,9.48
2019-03-17T06:21:35.575Z,9.51
2019-03-17T06:24:04.060Z,9.52
2019-03-17T06:26:32.514Z,9.55
2019-03-17T06:29:00.957Z,9.61
2019-03-17T06:31:29.440Z,9.68
2019-03-17T06:33:57.897Z,9.77
2019-03-17T06:36:26.370Z,9.88
2019-03-17T06:38:54.839Z,9.97
2019-03-17T06:41:23.317Z,10.03
2019-03-17T06:43:51.780Z,10.08
2019-03-17T06:46:20.278Z,10.12
2019-03-17T06:48:48.736Z,10.12
2019-03-17T06:51:18.188Z,10.13
2019-03-17T06:53:55.722Z,10.12
2019-03-17T06:56:17.098Z,10.12
2019-03-17T06:58:45.577Z,10.13
2019-03-17T07:01:14.121Z,10.14
2019-03-17T07:03:42.584Z,10.19
2019-03-17T07:06:11.022Z,10.23
2019-03-17T07:08:39.505Z,10.28
2019-03-17T07:11:10.943Z,10.33
2019-03-17T07:13:38.405Z,10.37
2019-03-17T07:16:06.909Z,10.43
2019-03-17T07:18:35.366Z,10.48
2019-03-17T07:21:03.816Z,10.52
2019-03-17T07:23:34.328Z,10.55
2019-03-17T07:26:02.499Z,10.58
2019-03-17T07:28:30.961Z,10.66
2019-03-17T07:30:59.450Z,10.77
2019-03-17T07:33:27.924Z,10.86
2019-03-17T07:35:56.378Z,10.91
2019-03-17T07:38:24.965Z,10.98
2019-03-17T07:40:53.425Z,11.03
2019-03-17T07:43:21.870Z,11.10
2019-03-17T07:45:50.356Z,11.13
2019-03-17T07:48:18.813Z,11.15
2019-03-17T07:50:47.260Z,11.21
2019-03-17T07:53:15.795Z,11.27
2019-03-17T07:55:45.252Z,11.32
2019-03-17T07:58:13.712Z,11.34
2019-03-17T08:00:42.222Z,11.36
2019-03-17T08:03:10.682Z,11.37
2019-03-17T08:05:39.147Z,11.40
2019-03-17T08:08:09.817Z,11.42
2019-03-17T08:10:37.826Z,11.44
2019-03-17T08:13:06.318Z,11.47
2019-03-17T08:15:34.805Z,11.49
2019-03-17T08:18:03.270Z,11.50
2019-03-17T08:20:31.725Z,11.52
2019-03-17T08:23:00.226Z,11.56
2019-03-17T08:25:28.688Z,11.63
2019-03-17T08:27:57.148Z,11.71
2019-03-17T08:30:25.675Z,11.78
2019-03-17T08:32:54.138Z,11.87
2019-03-17T08:35:22.600Z,11.93
2019-03-17T08:37:51.092Z,12.02
2019-03-17T08:40:19.617Z,12.07
2019-03-17T08:42:48.082Z,12.12
2019-03-17T08:45:16.559Z,12.20
2019-03-17T08:47:57.535Z,12.32
2019-03-17T08:50:15.639Z,12.43
2019-03-17T08:52:44.175Z,12.56
2019-03-17T08:55:12.710Z,12.68
2019-03-17T08:57:41.508Z,12.76
2019-03-17T09:00:14.890Z,12.86
2019-03-17T09:02:43.398Z,12.94
2019-03-17T09:05:11.890Z,13.01
2019-03-17T09:07:40.391Z,13.07
2019-03-17T09:10:15.755Z,13.17
2019-03-17T09:12:44.308Z,13.26
2019-03-17T09:15:12.859Z,13.36
2019-03-17T09:17:41.352Z,13.43
2019-03-17T09:20:12.460Z,13.54
2019-03-17T09:22:40.954Z,13.67
2019-03-17T09:25:12.377Z,13.75
2019-03-17T09:27:40.882Z,13.86
2019-03-17T09:30:17.519Z,13.95
2019-03-17T09:32:47.720Z,13.98
2019-03-17T09:35:16.369Z,14.04
2019-03-17T09:37:44.838Z,14.16
2019-03-17T09:40:14.345Z,14.28
2019-03-17T09:42:42.822Z,14.37
2019-03-17T09:45:12.726Z,14.44
2019-03-17T09:47:41.629Z,14.45
2019-03-17T09:50:17.796Z,14.42
2019-03-17T09:52:46.250Z,14.33
2019-03-17T09:55:14.714Z,14.23
2019-03-17T09:57:43.210Z,14.12
2019-03-17T10:00:16.868Z,14.03
2019-03-17T10:02:45.321Z,13.98
2019-03-17T10:05:13.946Z,13.93
2019-03-17T10:07:42.492Z,13.89
2019-03-17T10:10:13.461Z,13.82
2019-03-17T10:12:43.587Z,13.76
2019-03-17T10:15:13.685Z,13.70
2019-03-17T10:17:42.142Z,13.67
2019-03-17T10:20:15.496Z,13.63
2019-03-17T10:22:44.102Z,13.62
2019-03-17T10:25:12.983Z,13.68
2019-03-17T10:27:41.555Z,13.77
2019-03-17T10:30:13.225Z,13.87
2019-03-17T10:32:41.706Z,13.91
2019-03-17T10:35:10.360Z,13.90
2019-03-17T10:37:38.821Z,13.88
2019-03-17T10:40:10.448Z,13.86
2019-03-17T10:42:38.948Z,13.80
2019-03-17T10:45:09.251Z,13.75
2019-03-17T10:47:37.727Z,13.72
2019-03-17T10:50:22.380Z,13.72
2019-03-17T10:52:50.837Z,13.74
2019-03-17T10:55:19.300Z,13.73
2019-03-17T10:57:47.881Z,13.71
2019-03-17T11:00:20.856Z,13.67
2019-03-17T11:02:50.415Z,13.65
2019-03-17T11:05:18.915Z,13.59
2019-03-17T11:07:47.375Z,13.54
2019-03-17T11:10:16.597Z,13.45
2019-03-17T11:12:45.180Z,13.40
2019-03-17T11:15:18.317Z,13.33
2019-03-17T11:17:46.781Z,13.29
2019-03-17T11:20:15.289Z,13.24
2019-03-17T11:22:43.820Z,13.15
2019-03-17T11:25:20.131Z,13.09
2019-03-17T11:27:48.634Z,13.03
2019-03-17T11:30:18.229Z,12.81
2019-03-17T11:32:46.697Z,12.40
2019-03-17T11:35:15.215Z,11.98
2019-03-17T11:37:43.813Z,11.57
2019-03-17T11:40:15.285Z,11.24
2019-03-17T11:42:43.777Z,10.95
2019-03-17T11:45:16.014Z,10.68
2019-03-17T11:47:44.736Z,10.49
2019-03-17T11:50:17.487Z,10.34
2019-03-17T11:52:46.025Z,10.18
2019-03-17T11:55:15.120Z,10.07
2019-03-17T11:57:43.696Z,10.00
2019-03-17T12:00:20.975Z,9.99
2019-03-17T12:02:49.463Z,9.94
2019-03-17T12:05:18.104Z,9.94
2019-03-17T12:07:46.556Z,9.92
2019-03-17T12:10:20.393Z,9.93
2019-03-17T12:12:48.915Z,9.94
2019-03-17T12:15:19.473Z,9.95
2019-03-17T12:17:47.969Z,9.98
2019-03-17T12:20:16.499Z,10.03
2019-03-17T12:22:44.960Z,10.06
2019-03-17T12:25:17.161Z,10.09
2019-03-17T12:27:45.623Z,10.13
2019-03-17T12:30:21.737Z,10.17
2019-03-17T12:32:51.422Z,10.22
2019-03-17T12:35:19.945Z,10.30
2019-03-17T12:37:48.453Z,10.38
2019-03-17T12:40:16.985Z,10.43
2019-03-17T12:42:45.434Z,10.47
2019-03-17T12:45:14.289Z,10.51
2019-03-17T12:47:42.833Z,10.52
2019-03-17T12:50:16.689Z,10.51
2019-03-17T12:52:45.188Z,10.49
2019-03-17T12:55:13.646Z,10.46
2019-03-17T12:57:42.139Z,10.43
2019-03-17T13:00:24.093Z,10.41
2019-03-17T13:02:52.553Z,10.36
2019-03-17T13:05:21.036Z,10.31
2019-03-17T13:07:49.801Z,10.26
2019-03-17T13:10:19.791Z,10.19
2019-03-17T13:12:48.244Z,10.14
2019-03-17T13:15:17.323Z,10.11
2019-03-17T13:17:45.783Z,10.09
2019-03-17T13:20:15.533Z,10.11
2019-03-17T13:22:44.025Z,10.14
2019-03-17T13:25:12.651Z,10.13
2019-03-17T13:27:41.179Z,10.13
2019-03-17T13:30:19.162Z,10.09
2019-03-17T13:32:47.776Z,10.05
2019-03-17T13:35:16.235Z,10.03
2019-03-17T13:37:44.769Z,10.05
2019-03-17T13:40:14.364Z,10.04
2019-03-17T13:42:42.833Z,10.05
2019-03-17T13:45:14.621Z,10.05
2019-03-17T13:47:43.152Z,10.04
2019-03-17T13:50:17.207Z,10.01
2019-03-17T13:52:45.713Z,9.99
2019-03-17T13:55:15.297Z,9.98
2019-03-17T13:57:55.825Z,9.99
2019-03-17T14:00:24.287Z,10.00
2019-03-17T14:02:52.756Z,9.99
2019-03-17T14:05:21.270Z,10.02
2019-03-17T14:07:49.728Z,10.03
2019-03-17T14:10:18.874Z,10.04
2019-03-17T14:12:47.362Z,10.04
2019-03-17T14:15:16.254Z,10.04
2019-03-17T14:17:44.716Z,10.06
2019-03-17T14:20:20.386Z,10.08
2019-03-17T14:22:48.239Z,10.07
2019-03-17T14:25:27.663Z,10.05
2019-03-17T14:27:56.122Z,10.03
2019-03-17T14:30:24.586Z,10.02
2019-03-17T14:32:53.072Z,10.02
2019-03-17T14:35:22.031Z,10.01
2019-03-17T14:37:50.573Z,9.99
2019-03-17T14:40:19.073Z,10.00
2019-03-17T14:42:48.769Z,10.01
2019-03-17T14:45:18.070Z,9.99
2019-03-17T14:47:46.643Z,9.99
2019-03-17T14:50:20.528Z,9.97
2019-03-17T14:52:48.988Z,9.92
2019-03-17T14:55:17.490Z,9.84
2019-03-17T14:57:45.947Z,9.78
2019-03-17T15:00:18.759Z,9.74
2019-03-17T15:02:47.238Z,9.73
2019-03-17T15:05:15.762Z,9.71
2019-03-17T15:07:44.287Z,9.70
2019-03-17T15:10:25.908Z,9.68
2019-03-17T15:12:54.588Z,9.68
2019-03-17T15:15:23.589Z,9.67
2019-03-17T15:17:52.072Z,9.65
2019-03-17T15:20:23.688Z,9.64
2019-03-17T15:22:52.139Z,9.59
2019-03-17T15:25:20.637Z,9.56
2019-03-17T15:27:49.086Z,9.56
2019-03-17T15:30:20.251Z,9.55
2019-03-17T15:32:48.769Z,9.55
2019-03-17T15:35:17.214Z,9.56
2019-03-17T15:37:45.681Z,9.57
2019-03-17T15:40:18.893Z,9.57
2019-03-17T15:42:47.356Z,9.58
2019-03-17T15:45:19.756Z,9.57
2019-03-17T15:47:48.263Z,9.55
2019-03-17T15:50:29.738Z,9.53
2019-03-17T15:52:58.240Z,9.51
2019-03-17T15:55:26.676Z,9.47
2019-03-17T15:57:55.128Z,9.44
2019-03-17T16:00:26.302Z,9.41
2019-03-17T16:02:54.512Z,9.40
2019-03-17T16:05:22.987Z,9.37
2019-03-17T16:07:51.481Z,9.33
2019-03-17T16:10:27.215Z,9.30
2019-03-17T16:12:55.764Z,9.29
2019-03-17T16:15:25.442Z,9.28
2019-03-17T16:17:53.899Z,9.26
2019-03-17T16:20:26.199Z,9.29
2019-03-17T16:22:54.683Z,9.34
2019-03-17T16:25:31.864Z,9.38
2019-03-17T16:28:00.352Z,9.41
2019-03-17T16:30:33.383Z,9.41
2019-03-17T16:33:01.843Z,9.39
2019-03-17T16:35:30.414Z,9.38
2019-03-17T16:37:58.927Z,9.36
2019-03-17T16:40:34.690Z,9.35
2019-03-17T16:43:03.488Z,9.24
2019-03-17T16:45:31.967Z,8.98
2019-03-17T16:48:00.493Z,8.69
2019-03-17T16:50:28.943Z,8.41
2019-03-17T16:52:57.427Z,8.17
2019-03-17T16:55:25.886Z,7.98
2019-03-17T16:57:54.347Z,7.81
2019-03-17T17:00:23.982Z,7.66
2019-03-17T17:02:52.810Z,7.54
2019-03-17T17:05:22.299Z,7.43
2019-03-17T17:07:50.794Z,7.32
2019-03-17T17:10:21.577Z,7.24
2019-03-17T17:12:50.098Z,7.16
2019-03-17T17:15:26.408Z,7.09
2019-03-17T17:17:55.234Z,7.04
2019-03-17T17:20:26.870Z,6.98
2019-03-17T17:22:55.352Z,6.95
2019-03-17T17:25:23.815Z,6.90
2019-03-17T17:27:52.282Z,6.87
2019-03-17T17:30:21.044Z,6.84
2019-03-17T17:32:49.659Z,6.80
2019-03-17T17:35:18.152Z,6.75
2019-03-17T17:37:46.643Z,6.70
2019-03-17T17:40:21.077Z,6.64
2019-03-17T17:42:49.552Z,6.57
2019-03-17T17:45:22.720Z,6.50
2019-03-17T17:47:51.242Z,6.45
2019-03-17T17:50:21.689Z,6.40
2019-03-17T17:52:50.367Z,6.37
2019-03-17T17:55:18.838Z,6.33
2019-03-17T17:57:47.368Z,6.32
2019-03-17T18:00:19.053Z,6.26
2019-03-17T18:02:47.561Z,6.21
2019-03-17T18:05:16.034Z,6.17
2019-03-17T18:07:44.520Z,6.11
2019-03-17T18:10:17.107Z,6.04
2019-03-17T18:12:45.553Z,5.98
2019-03-17T18:15:19.865Z,5.92
2019-03-17T18:17:48.328Z,5.87
2019-03-17T18:20:17.869Z,5.82
2019-03-17T18:22:46.382Z,5.80
2019-03-17T18:25:17.342Z,5.76
2019-03-17T18:27:46.168Z,5.72
2019-03-17T18:30:18.772Z,5.69
2019-03-17T18:32:47.240Z,5.65
2019-03-17T18:35:15.726Z,5.62
2019-03-17T18:37:44.231Z,5.51
2019-03-17T18:40:20.537Z,5.53
2019-03-17T18:42:49.166Z,5.49
2019-03-17T18:45:31.109Z,5.37
2019-03-17T18:47:59.556Z,5.37
2019-03-17T18:50:28.033Z,5.37
2019-03-17T18:52:56.519Z,5.33
2019-03-17T18:55:24.970Z,5.29
2019-03-17T18:57:53.420Z,5.23
2019-03-17T19:00:23.578Z,5.20
2019-03-17T19:02:52.103Z,5.20
2019-03-17T19:05:20.670Z,5.20
2019-03-17T19:07:49.129Z,5.19
2019-03-17T19:10:18.621Z,5.19
2019-03-17T19:12:47.144Z,5.14
2019-03-17T19:15:17.073Z,5.12
2019-03-17T19:17:45.517Z,5.12
2019-03-17T19:20:20.988Z,5.11
2019-03-17T19:22:49.732Z,5.08
2019-03-17T19:25:20.291Z,5.11
2019-03-17T19:27:48.752Z,5.10
2019-03-17T19:30:24.769Z,5.11
2019-03-17T19:32:53.280Z,5.04
2019-03-17T19:35:21.807Z,5.06
2019-03-17T19:37:50.283Z,5.08
2019-03-17T19:40:25.917Z,5.08
2019-03-17T19:42:59.059Z,5.08
2019-03-17T19:45:24.607Z,5.02
2019-03-17T19:47:53.101Z,5.04
2019-03-17T19:50:22.754Z,5.03
2019-03-17T19:52:51.259Z,5.03
2019-03-17T19:55:19.689Z,5.01
2019-03-17T19:57:48.180Z,5.00
2019-03-17T20:00:18.850Z,4.98
2019-03-17T20:02:48.023Z,4.98
2019-03-17T20:05:16.772Z,4.97
2019-03-17T20:07:45.296Z,4.94
2019-03-17T20:10:16.906Z,4.94
2019-03-17T20:12:45.380Z,4.95
2019-03-17T20:15:13.844Z,4.93
2019-03-17T20:17:42.301Z,4.90
2019-03-17T20:20:13.312Z,4.88
2019-03-17T20:22:41.839Z,4.88
2019-03-17T20:25:10.306Z,4.88
2019-03-17T20:27:38.794Z,4.87
2019-03-17T20:30:14.798Z,4.87
2019-03-17T20:32:43.298Z,4.87
2019-03-17T20:35:12.997Z,4.87
2019-03-17T20:37:41.464Z,4.83
2019-03-17T20:40:17.677Z,4.83
2019-03-17T20:42:46.126Z,4.76
2019-03-17T20:45:15.526Z,4.76
2019-03-17T20:47:44.004Z,4.74
2019-03-17T20:50:19.751Z,4.75
2019-03-17T20:52:48.286Z,4.74
2019-03-17T20:55:16.785Z,4.72
2019-03-17T20:57:45.245Z,4.67
2019-03-17T21:00:20.102Z,4.69
2019-03-17T21:02:48.580Z,4.68
2019-03-17T21:05:17.031Z,4.66
2019-03-17T21:07:45.498Z,4.66
2019-03-17T21:10:16.003Z,4.60
2019-03-17T21:12:44.528Z,4.62
2019-03-17T21:15:15.376Z,4.66
2019-03-17T21:17:43.860Z,4.64
2019-03-17T21:20:18.313Z,4.63
2019-03-17T21:22:46.755Z,4.64
2019-03-17T21:25:15.547Z,4.62
2019-03-17T21:27:44.023Z,4.62
2019-03-17T21:30:17.903Z,4.62
2019-03-17T21:32:46.785Z,4.62
2019-03-17T21:35:15.244Z,4.62
2019-03-17T21:37:43.777Z,4.60
2019-03-17T21:40:13.034Z,4.61
2019-03-17T21:42:41.488Z,4.61
2019-03-17T21:45:13.456Z,4.58
2019-03-17T21:47:41.969Z,4.59
2019-03-17T21:50:17.647Z,4.59
2019-03-17T21:52:46.184Z,4.58
2019-03-17T21:55:14.845Z,4.58
2019-03-17T21:57:43.686Z,4.57
2019-03-17T22:00:19.867Z,4.54
2019-03-17T22:02:48.474Z,4.53
2019-03-17T22:05:17.398Z,4.53
2019-03-17T22:07:49.981Z,4.51
2019-03-17T22:10:17.285Z,4.49
2019-03-17T22:12:45.749Z,4.46
2019-03-17T22:15:16.143Z,4.46
2019-03-17T22:17:44.599Z,4.45
2019-03-17T22:20:16.207Z,4.45
2019-03-17T22:22:44.761Z,4.44
2019-03-17T22:25:14.148Z,4.44
2019-03-17T22:27:43.522Z,4.42
2019-03-17T22:30:16.138Z,4.48
2019-03-17T22:32:44.591Z,4.48
2019-03-17T22:35:13.061Z,4.48
2019-03-17T22:37:41.550Z,4.50
2019-03-17T22:40:12.810Z,4.50
2019-03-17T22:42:41.343Z,4.53
2019-03-17T22:45:11.665Z,4.53
2019-03-17T22:47:40.136Z,4.59
2019-03-17T22:50:14.564Z,4.62
2019-03-17T22:52:43.058Z,4.62
2019-03-17T22:55:11.780Z,4.61
2019-03-17T22:57:40.242Z,4.69
2019-03-17T23:00:11.926Z,4.74
2019-03-17T23:02:40.375Z,4.75
2019-03-17T23:05:08.989Z,4.79
2019-03-17T23:07:37.864Z,4.83
2019-03-17T23:10:09.278Z,4.82
2019-03-17T23:12:37.731Z,4.83
2019-03-17T23:15:08.667Z,4.87
2019-03-17T23:17:37.127Z,4.84
2019-03-17T23:20:10.583Z,4.87
2019-03-17T23:22:39.077Z,4.87
2019-03-17T23:25:09.371Z,4.87
2019-03-17T23:27:37.828Z,4.87
2019-03-17T23:30:09.611Z,4.89
2019-03-17T23:32:38.059Z,4.89
2019-03-17T23:35:07.448Z,4.89
2019-03-17T23:37:35.949Z,4.87
2019-03-17T23:40:09.531Z,4.86
2019-03-17T23:42:37.023Z,4.85
2019-03-17T23:45:07.382Z,4.85
2019-03-17T23:47:35.845Z,4.85
2019-03-17T23:50:06.931Z,4.81
2019-03-17T23:52:35.418Z,4.81
2019-03-17T23:55:04.241Z,4.79
2019-03-17T23:57:33.547Z,4.74
